Milwaukee, WI (53219)

12:57 AM CDT on September 02, 2015 (GMT -0500)
Jans Embroidery | | Change Station
CLOSE
Current Station
Personal Weather Station
Location: West Allis, WI
Elevation: 738 ft
Nearby Weather Stations

Elev 738 ft 43.00 °N, 88.00 °W | Updated 4 seconds ago

Partly Cloudy
Partly Cloudy
73.9 °F
Feels Like 74 °F
N
0.0
Wind Variable Wind from SSW
Gusts 0.0 mph

Today
High -- | Low -- °F
--% Chance of Precip.
Yesterday
High -- | Low -- °F
Precip. -- in
6:17 AM 7:25 PM
Waning Gibbous, 83% visible
Pressure 29.99 in
Visibility 9.0 miles
Clouds Scattered Clouds 9500 ft
Heat Index 74 °F
Dew Point 68 °F
Humidity 80%
Rainfall 0.00 in
Snow Depth Not available.
UV 0 out of 12
Pollen 9.60 out of 12
Air Quality Not available.
Flu Activity Not available.
METAR KMKE 020552Z 23009KT 9SM SCT095 25/21 A3000 RMK AO2 SLP153 T02500211 10294 20244 403220189 50001
Pressure 29.99 in
Visibility 9.0 miles
Clouds Scattered Clouds 9500 ft
Heat Index 74 °F
Dew Point 68 °F
Humidity 80%
Rainfall 0.00 in
Snow Depth Not available.
UV 0 out of 12
Pollen 9.60 out of 12
Air Quality Not available.
Flu Activity Not available.
METAR KMKE 020552Z 23009KT 9SM SCT095 25/21 A3000 RMK AO2 SLP153 T02500211 10294 20244 403220189 50001

10-Day Weather Forecast

×

Almanac

Astronomy

Sep. 02, 2015 Rise Set
Actual Time
Civil Twilight
Nautical Twilight
Astronomical Twilight
Moon
Length of Visible Light
Length of Day
Tomorrow will be .
, % of the Moon is Illuminated

Today's Extremes

State Highs State Lows

Community

WunderPhotos

Upload Photos

1,851,709 photos uploaded!

WunderBlogs® & News

Nearby

Air Quality

  Air Quality AQ Index Pollutant
Not available.

Snow Depth

Station Depth Elevation

Earthquake Activity

City Distance Mag. Time & Date
Minimum magnitude displayed is 2.5.

Coastal Water Temperatures

Place Temperature

Stations

Nearby Weather Stations

Station Location Temp. Windchill Dew Point Humidity Wind Precip. Elev Updated Type